Time;durP1;ratioP1;P1;durP2;ratioP2;P2;SDS_P1;SDS_P2;PMS_P1;PMS_P2;Temp;Humidity;BMP_temperature;BMP_pressure;BME280_temperature;BME280_humidity;BME280_pressure;Samples;Min_cycle;Max_cycle;Signal;HPM_P1;HPM_P2
2023/03/07 00:01:04;;;;;;;7.57;6.28;;;;;;;9.42;51.13;94104.75;5117956;28;20188;-72
2023/03/07 00:03:31;;;;;;;9.98;6.80;;;;;;;9.46;51.05;94110.31;5117423;28;20207;-71
2023/03/07 00:06:03;;;;;;;7.85;6.68;;;;;;;9.48;51.07;94111.53;5117730;28;20172;-70
2023/03/07 00:08:29;;;;;;;9.95;6.57;;;;;;;9.50;50.72;94100.94;5117856;28;20188;-71
2023/03/07 00:11:01;;;;;;;7.55;6.88;;;;;;;9.51;50.80;94098.97;5100354;28;20204;-71
2023/03/07 00:13:30;;;;;;;7.05;6.45;;;;;;;9.53;50.71;94097.44;5117210;28;20196;-71
2023/03/07 00:16:00;;;;;;;6.10;5.50;;;;;;;9.57;50.67;94092.00;5117923;28;20248;-71
2023/03/07 00:18:29;;;;;;;6.35;5.78;;;;;;;9.62;50.55;94083.41;5099380;28;20271;-71
2023/03/07 00:20:59;;;;;;;6.38;5.63;;;;;;;9.64;50.51;94090.13;5117584;28;20199;-71
2023/03/07 00:23:27;;;;;;;6.65;6.00;;;;;;;9.64;50.46;94083.84;5099359;28;20214;-71
2023/03/07 00:25:59;;;;;;;6.18;5.45;;;;;;;9.65;50.15;94075.19;5099346;28;20548;-71
2023/03/07 00:28:44;;;;;;;7.05;6.35;;;;;;;9.60;50.14;94072.78;5117272;28;20195;-71
2023/03/07 00:31:11;;;;;;;6.32;5.78;;;;;;;9.60;50.56;94070.03;5099458;28;20202;-71
2023/03/07 00:33:39;;;;;;;6.35;5.75;;;;;;;9.63;50.46;94069.28;5116928;28;20184;-72
2023/03/07 00:36:08;;;;;;;5.88;5.47;;;;;;;9.64;50.10;94059.84;5099350;28;20538;-72
2023/03/07 00:38:35;;;;;;;5.63;5.13;;;;;;;9.63;50.00;94063.00;5116769;28;20688;-71
2023/03/07 00:41:04;;;;;;;5.03;4.63;;;;;;;9.62;49.67;94064.94;5098315;28;20630;-71
2023/03/07 00:43:31;;;;;;;4.95;4.53;;;;;;;9.58;49.81;94055.81;5078894;28;20201;-71
2023/03/07 00:45:58;;;;;;;5.32;4.93;;;;;;;9.61;49.91;94054.28;5096704;28;20185;-71
2023/03/07 00:48:26;;;;;;;5.47;5.05;;;;;;;9.56;49.99;94058.16;5096547;28;20200;-71
2023/03/07 00:50:54;;;;;;;4.95;4.55;;;;;;;9.55;50.06;94061.28;5078649;28;20204;-71
2023/03/07 00:53:21;;;;;;;5.60;5.20;;;;;;;9.54;50.15;94048.69;5078734;28;20189;-71
2023/03/07 00:55:56;;;;;;;5.25;4.80;;;;;;;9.54;50.01;94048.69;5078632;28;20200;-71
2023/03/07 00:58:23;;;;;;;4.55;4.03;;;;;;;9.55;49.38;94058.53;5061714;28;20675;-71
2023/03/07 01:00:50;;;;;;;4.88;4.47;;;;;;;9.55;49.21;94064.03;5096332;28;20286;-71
2023/03/07 01:03:18;;;;;;;4.70;4.30;;;;;;;9.54;49.34;94065.19;5096087;28;20532;-71
2023/03/07 01:05:45;;;;;;;4.70;4.22;;;;;;;9.55;49.39;94061.28;5078144;28;20543;-71
2023/03/07 01:08:13;;;;;;;4.95;4.55;;;;;;;9.54;49.27;94063.22;5078088;28;20196;-71
2023/03/07 01:10:40;;;;;;;4.72;4.30;;;;;;;9.55;49.33;94061.28;5096165;28;20189;-71
2023/03/07 01:13:08;;;;;;;4.82;4.53;;;;;;;9.55;49.23;94059.34;5096116;28;20180;-71
2023/03/07 01:15:35;;;;;;;5.03;4.63;;;;;;;9.54;49.43;94060.47;5077890;28;20214;-71
2023/03/07 01:18:02;;;;;;;5.22;4.28;;;;;;;9.55;49.53;94048.31;5078384;28;20216;-71
2023/03/07 01:20:31;;;;;;;4.80;4.40;;;;;;;9.57;49.72;94047.94;5096078;28;20189;-71
2023/03/07 01:22:58;;;;;;;9.30;8.40;;;;;;;9.58;49.91;94036.56;5078027;28;20211;-70
2023/03/07 01:25:26;;;;;;;7.28;6.57;;;;;;;9.47;50.26;94026.56;5095990;28;20189;-70
2023/03/07 01:27:54;;;;;;;6.15;5.38;;;;;;;9.43;49.44;94029.25;5078017;28;20188;-71
2023/03/07 01:30:21;;;;;;;3.90;3.60;;;;;;;9.45;48.43;94029.69;5095675;28;20192;-72
2023/03/07 01:32:48;;;;;;;3.97;3.65;;;;;;;9.52;48.23;94020.75;5078049;28;20208;-71
2023/03/07 01:35:15;;;;;;;8.55;7.50;;;;;;;9.46;49.65;94030.47;5095803;28;20287;-71
2023/03/07 01:37:42;;;;;;;9.18;8.27;;;;;;;9.33;50.85;94027.94;5077530;28;20220;-71
2023/03/07 01:40:11;;;;;;;10.20;8.63;;;;;;;9.25;51.05;94026.22;5095709;28;20185;-71
2023/03/07 01:42:39;;;;;;;10.30;9.30;;;;;;;9.05;52.27;94028.28;5095346;28;20694;-71
2023/03/07 01:45:08;;;;;;;11.67;10.47;;;;;;;8.90;52.46;94018.22;5095751;28;20200;-71
2023/03/07 01:47:35;;;;;;;12.45;11.02;;;;;;;8.87;52.72;94029.97;5077801;28;20611;-71
2023/03/07 01:50:04;;;;;;;13.45;11.10;;;;;;;8.83;53.21;94029.09;5078041;28;20193;-71
2023/03/07 01:52:34;;;;;;;12.88;10.73;;;;;;;8.78;53.28;94026.66;5078028;28;20200;-71
2023/03/07 01:55:03;;;;;;;11.15;10.00;;;;;;;8.74;53.36;94042.28;5077602;28;20214;-71
2023/03/07 01:57:34;;;;;;;10.20;9.15;;;;;;;8.71;53.51;94032.81;5077335;28;20216;-70
2023/03/07 02:00:07;;;;;;;10.70;9.35;;;;;;;8.70;53.50;94036.72;5078116;28;20208;-70
2023/03/07 02:02:35;;;;;;;9.80;8.80;;;;;;;8.72;53.10;94030.88;5078181;28;20199;-70
2023/03/07 02:05:06;;;;;;;9.90;8.88;;;;;;;8.66;53.95;94039.41;5077523;28;20223;-70
2023/03/07 02:07:36;;;;;;;9.93;8.50;;;;;;;8.63;53.69;94051.13;5095285;28;20189;-70
2023/03/07 02:10:03;;;;;;;9.60;8.60;;;;;;;8.60;53.66;94040.88;5077297;28;20207;-71
2023/03/07 02:12:30;;;;;;;9.32;8.43;;;;;;;8.55;54.10;94041.19;5077529;28;20210;-71
2023/03/07 02:14:57;;;;;;;10.07;9.05;;;;;;;8.51;54.08;94034.03;5094820;28;20188;-71
2023/03/07 02:17:26;;;;;;;10.10;9.00;;;;;;;8.45;54.03;94036.28;5095063;28;20192;-71
2023/03/07 02:19:59;;;;;;;10.57;8.95;;;;;;;8.42;54.15;94039.75;5097577;28;20211;-71
2023/03/07 02:22:27;;;;;;;9.52;8.63;;;;;;;8.44;53.98;94027.25;5081672;28;20192;-71
2023/03/07 02:24:57;;;;;;;9.55;8.57;;;;;;;8.42;54.38;94028.75;5081829;28;20202;-71
2023/03/07 02:27:26;;;;;;;9.73;8.73;;;;;;;8.46;54.21;94031.56;5099178;28;20234;-71
2023/03/07 02:29:53;;;;;;;9.90;8.95;;;;;;;8.49;53.92;94033.59;5099226;28;20199;-71
2023/03/07 02:32:20;;;;;;;9.60;8.65;;;;;;;8.53;54.04;94034.44;5099339;28;20245;-71
2023/03/07 02:34:47;;;;;;;9.57;8.57;;;;;;;8.47;54.23;94033.19;5099136;28;20191;-71
2023/03/07 02:37:17;;;;;;;9.85;8.88;;;;;;;8.44;54.31;94035.47;5081257;28;20517;-71
2023/03/07 02:39:45;;;;;;;9.18;8.27;;;;;;;8.43;54.85;94038.59;5081166;28;20208;-71
2023/03/07 02:42:14;;;;;;;9.10;8.20;;;;;;;8.39;54.70;94041.28;5091263;28;20238;-71
2023/03/07 02:44:44;;;;;;;10.10;7.97;;;;;;;8.36;54.41;94038.44;5101420;28;20207;-71
2023/03/07 02:47:11;;;;;;;8.45;7.72;;;;;;;8.34;54.74;94049.78;5101779;28;20188;-71
2023/03/07 02:49:37;;;;;;;9.63;8.63;;;;;;;8.32;54.57;94043.06;5101474;28;20265;-71
2023/03/07 02:52:05;;;;;;;10.13;9.13;;;;;;;8.32;54.61;94040.34;5101246;28;20211;-71
2023/03/07 02:54:32;;;;;;;9.35;8.00;;;;;;;8.33;54.82;94041.91;5101707;28;20207;-71
2023/03/07 02:56:59;;;;;;;9.70;8.80;;;;;;;8.32;55.07;94038.38;5101276;28;20200;-71
2023/03/07 02:59:25;;;;;;;10.35;9.35;;;;;;;8.28;54.56;94034.78;5100977;28;20635;-71
2023/03/07 03:01:53;;;;;;;11.30;9.45;;;;;;;8.24;54.42;94041.31;5100745;28;20639;-71
2023/03/07 03:04:20;;;;;;;9.95;8.85;;;;;;;8.23;54.66;94042.50;5119292;28;20184;-71
2023/03/07 03:06:47;;;;;;;9.77;8.88;;;;;;;8.25;54.83;94032.75;5100645;28;20626;-71
2023/03/07 03:09:14;;;;;;;9.43;8.50;;;;;;;8.25;54.72;94046.47;5118913;28;20184;-71
2023/03/07 03:11:41;;;;;;;8.85;8.05;;;;;;;8.24;54.83;94044.88;5100994;28;20186;-72
2023/03/07 03:14:08;;;;;;;9.10;8.30;;;;;;;8.25;54.91;94040.97;5101179;28;20208;-70
2023/03/07 03:16:34;;;;;;;9.70;8.80;;;;;;;8.28;54.68;94044.94;5119171;28;20283;-70
2023/03/07 03:19:03;;;;;;;11.43;10.23;;;;;;;8.22;54.73;94044.44;5100841;28;20572;-70
2023/03/07 03:21:30;;;;;;;10.93;9.02;;;;;;;8.17;54.76;94029.06;5118700;28;20217;-70
2023/03/07 03:23:56;;;;;;;20.25;14.13;;;;;;;8.19;55.25;94015.75;5118874;28;20218;-70
2023/03/07 03:26:23;;;;;;;13.18;10.70;;;;;;;8.08;55.30;94028.47;5101016;28;20196;-70
2023/03/07 03:28:50;;;;;;;11.15;9.60;;;;;;;8.09;55.46;94046.53;5100639;28;20188;-70
2023/03/07 03:31:17;;;;;;;11.38;9.93;;;;;;;8.10;55.67;94045.41;5100286;28;20244;-70
2023/03/07 03:33:44;;;;;;;10.57;9.57;;;;;;;8.15;55.28;94034.13;5118486;28;20222;-70
2023/03/07 03:36:14;;;;;;;11.18;9.43;;;;;;;8.16;55.28;94037.66;5101055;28;20199;-70
2023/03/07 03:38:41;;;;;;;10.65;9.65;;;;;;;8.16;55.32;94041.19;5100460;28;20227;-70
2023/03/07 03:41:11;;;;;;;10.77;9.48;;;;;;;8.18;55.31;94051.84;5117951;28;20188;-70
2023/03/07 03:43:38;;;;;;;10.57;9.40;;;;;;;8.20;55.74;94046.75;5100250;28;20195;-70
2023/03/07 03:46:05;;;;;;;12.38;11.13;;;;;;;8.22;55.82;94049.94;5100763;28;20210;-70
2023/03/07 03:48:32;;;;;;;11.07;9.98;;;;;;;8.18;55.29;94055.38;5100237;28;20208;-70
2023/03/07 03:51:03;;;;;;;10.80;9.60;;;;;;;8.18;55.60;94041.63;5117902;28;20176;-69
2023/03/07 03:53:32;;;;;;;11.32;9.65;;;;;;;8.19;56.04;94042.44;5117624;28;20180;-69
2023/03/07 03:56:04;;;;;;;12.00;10.40;;;;;;;8.22;55.92;94041.69;5100547;28;20204;-71
2023/03/07 03:58:31;;;;;;;15.60;12.70;;;;;;;8.19;55.68;94045.97;5100268;28;20215;-71
2023/03/07 04:01:00;;;;;;;14.15;12.55;;;;;;;8.13;56.15;94050.19;5100137;28;20192;-72
2023/03/07 04:03:27;;;;;;;13.80;12.35;;;;;;;8.12;56.52;94039.53;5099938;28;20207;-73
2023/03/07 04:05:54;;;;;;;12.60;11.40;;;;;;;8.12;56.54;94045.81;5117807;28;20207;-73
2023/03/07 04:08:21;;;;;;;11.70;10.45;;;;;;;8.09;56.21;94048.50;5099753;28;20202;-73
2023/03/07 04:10:50;;;;;;;11.15;10.02;;;;;;;8.08;55.91;94042.22;5117446;28;20486;-73
2023/03/07 04:13:37;;;;;;;9.57;8.35;;;;;;;8.14;55.90;94037.22;5115468;28;20260;-73
2023/03/07 04:16:05;;;;;;;9.95;9.05;;;;;;;8.14;56.38;94040.78;5117373;28;20176;-73
2023/03/07 04:18:32;;;;;;;11.15;9.95;;;;;;;8.16;56.25;94052.19;5117533;28;20203;-73
2023/03/07 04:20:58;;;;;;;12.82;10.60;;;;;;;8.17;56.49;94044.75;5108954;28;20210;-73
2023/03/07 04:23:25;;;;;;;11.90;10.27;;;;;;;8.21;56.04;94042.88;5099905;28;20200;-73
2023/03/07 04:25:55;;;;;;;9.70;8.80;;;;;;;8.26;56.17;94055.50;5117342;28;20199;-72
2023/03/07 04:28:23;;;;;;;9.13;8.23;;;;;;;8.28;55.81;94058.66;5117355;28;20199;-73
2023/03/07 04:30:51;;;;;;;9.27;8.38;;;;;;;8.28;55.88;94047.69;5099518;28;20211;-74
2023/03/07 04:33:18;;;;;;;9.95;8.95;;;;;;;8.28;55.93;94053.19;5116666;28;20200;-73
2023/03/07 04:35:45;;;;;;;9.27;8.32;;;;;;;8.23;56.43;94056.22;5117022;28;20203;-73
2023/03/07 04:38:12;;;;;;;9.10;8.20;;;;;;;8.17;56.18;94058.50;5116854;28;20223;-73
2023/03/07 04:40:39;;;;;;;9.80;8.80;;;;;;;8.14;56.44;94056.47;5099254;28;20206;-73
2023/03/07 04:43:07;;;;;;;10.15;9.15;;;;;;;8.14;56.64;94061.94;5098196;28;20606;-73
2023/03/07 04:45:36;;;;;;;10.05;9.15;;;;;;;8.14;56.04;94090.22;5117357;28;20203;-73
2023/03/07 04:48:03;;;;;;;10.18;9.18;;;;;;;8.12;55.92;94084.28;5116791;28;20202;-74
2023/03/07 04:50:29;;;;;;;10.40;9.43;;;;;;;8.15;55.81;94072.56;5116678;28;20176;-74
2023/03/07 04:52:56;;;;;;;12.25;9.57;;;;;;;8.13;56.41;94066.66;5098655;28;20227;-74
2023/03/07 04:55:23;;;;;;;11.82;10.13;;;;;;;8.17;56.41;94063.97;5116715;28;20195;-73
2023/03/07 04:57:50;;;;;;;11.80;10.60;;;;;;;8.16;56.46;94067.88;5116498;28;20432;-72
2023/03/07 05:00:20;;;;;;;11.05;9.70;;;;;;;8.15;56.85;94061.56;5099098;28;20207;-69
2023/03/07 05:02:47;;;;;;;11.60;10.50;;;;;;;8.12;56.63;94072.50;5116542;28;20223;-70
2023/03/07 05:05:14;;;;;;;11.60;10.50;;;;;;;8.09;56.72;94065.75;5098757;28;20201;-70
2023/03/07 05:07:41;;;;;;;12.10;10.90;;;;;;;8.10;57.43;94070.13;5099683;28;20249;-69
2023/03/07 05:10:09;;;;;;;11.57;10.38;;;;;;;8.08;56.80;94083.41;5099807;28;20199;-68
2023/03/07 05:12:36;;;;;;;12.10;10.50;;;;;;;8.09;56.58;94062.22;5117409;28;20202;-69
2023/03/07 05:15:04;;;;;;;11.07;9.90;;;;;;;8.12;56.74;94072.50;5099367;28;20195;-69
2023/03/07 05:17:32;;;;;;;13.13;11.77;;;;;;;8.14;56.96;94070.19;5098795;28;20199;-69
2023/03/07 05:19:59;;;;;;;13.25;11.73;;;;;;;8.15;56.75;94080.00;5099222;28;20212;-69
2023/03/07 05:22:26;;;;;;;12.68;11.27;;;;;;;8.13;56.84;94072.16;5117117;28;20176;-69
2023/03/07 05:24:53;;;;;;;13.38;11.90;;;;;;;8.17;56.77;94085.97;5098822;28;20200;-69
2023/03/07 05:27:19;;;;;;;12.80;11.57;;;;;;;8.18;56.73;94069.09;5116661;28;20191;-69
2023/03/07 05:29:46;;;;;;;11.52;10.35;;;;;;;8.22;56.74;94069.19;5115982;28;20608;-69
2023/03/07 05:32:14;;;;;;;12.13;10.93;;;;;;;8.23;56.85;94064.47;5116441;28;20202;-69
2023/03/07 05:34:43;;;;;;;11.60;10.00;;;;;;;8.18;56.61;94095.78;5098711;28;20227;-69
2023/03/07 05:37:10;;;;;;;10.23;9.23;;;;;;;8.19;56.92;94069.91;5116039;28;20187;-69
2023/03/07 05:39:36;;;;;;;12.00;9.63;;;;;;;8.19;57.16;94078.94;5097854;28;20222;-69
2023/03/07 05:42:04;;;;;;;11.38;10.27;;;;;;;8.25;57.27;94075.91;5106822;28;20232;-69
2023/03/07 05:44:30;;;;;;;12.48;9.85;;;;;;;8.28;57.28;94086.97;5078432;28;20210;-69
2023/03/07 05:46:57;;;;;;;12.65;10.48;;;;;;;8.26;57.01;94097.50;5077898;28;20188;-68
2023/03/07 05:49:24;;;;;;;10.90;9.38;;;;;;;8.28;57.10;94095.22;5078731;28;20192;-68
2023/03/07 05:51:53;;;;;;;10.57;8.52;;;;;;;8.32;57.00;94095.28;5078130;28;20196;-69
2023/03/07 05:54:19;;;;;;;14.45;9.20;;;;;;;8.34;57.66;94090.19;5077743;28;20180;-69
2023/03/07 05:56:46;;;;;;;12.00;8.82;;;;;;;8.39;57.38;94100.94;5077861;28;20238;-69
2023/03/07 05:59:14;;;;;;;9.98;8.80;;;;;;;8.37;57.29;94100.47;5077594;28;20287;-70
2023/03/07 06:01:41;;;;;;;10.38;9.02;;;;;;;8.37;57.36;94104.03;5077649;28;20196;-69
2023/03/07 06:04:08;;;;;;;13.48;9.02;;;;;;;8.38;57.27;94094.63;5077731;28;20199;-69
2023/03/07 06:06:35;;;;;;;11.30;9.02;;;;;;;8.44;57.65;94103.38;5095376;28;20192;-70
2023/03/07 06:09:04;;;;;;;13.40;10.20;;;;;;;8.44;57.58;94109.69;5077385;28;20228;-70
2023/03/07 06:11:31;;;;;;;16.30;12.05;;;;;;;8.44;57.37;94098.69;5077842;28;20207;-73
2023/03/07 06:13:58;;;;;;;12.93;11.48;;;;;;;8.41;57.36;94099.41;5077862;28;20200;-74
2023/03/07 06:16:25;;;;;;;14.45;11.48;;;;;;;8.43;57.46;94105.34;5095036;28;20601;-73
2023/03/07 06:18:52;;;;;;;12.80;11.20;;;;;;;8.43;57.16;94099.84;5094782;28;20662;-73
2023/03/07 06:21:19;;;;;;;13.70;12.25;;;;;;;8.49;57.92;94099.53;5077592;28;20226;-73
2023/03/07 06:23:46;;;;;;;12.98;11.60;;;;;;;8.50;57.99;94101.16;5077973;28;20189;-73
2023/03/07 06:26:14;;;;;;;14.23;10.63;;;;;;;8.50;58.24;94099.19;5077613;28;20200;-73
2023/03/07 06:28:41;;;;;;;11.55;10.35;;;;;;;8.55;58.08;94098.91;5076880;28;20201;-73
2023/03/07 06:31:09;;;;;;;13.25;11.18;;;;;;;8.53;58.18;94106.69;5094733;28;20655;-73
2023/03/07 06:33:36;;;;;;;12.73;10.98;;;;;;;8.53;57.95;94122.38;5077808;28;20249;-73
2023/03/07 06:36:05;;;;;;;11.68;10.48;;;;;;;8.53;57.56;94114.94;5077332;28;20603;-75
2023/03/07 06:38:32;;;;;;;11.35;10.02;;;;;;;8.60;58.12;94125.28;5077431;28;20199;-75
2023/03/07 06:40:59;;;;;;;12.85;10.00;;;;;;;8.75;58.14;94120.84;5077301;28;20188;-75
2023/03/07 06:43:27;;;;;;;11.65;10.45;;;;;;;8.77;58.67;94124.03;5117276;28;20565;-74
2023/03/07 06:45:54;;;;;;;12.02;10.73;;;;;;;8.74;58.34;94124.75;5136296;28;20198;-73
2023/03/07 06:48:21;;;;;;;13.07;11.20;;;;;;;8.74;58.28;94127.50;5135747;28;20190;-74
2023/03/07 06:50:48;;;;;;;14.77;10.95;;;;;;;8.73;58.81;94120.44;5135889;28;20183;-73
2023/03/07 06:53:15;;;;;;;12.35;10.88;;;;;;;8.75;58.59;94129.91;5117714;28;20210;-73
2023/03/07 06:55:42;;;;;;;11.25;10.15;;;;;;;8.81;58.38;94125.69;5117367;28;20202;-73
2023/03/07 06:58:09;;;;;;;12.15;10.95;;;;;;;8.81;58.66;94128.44;5135955;28;20180;-73
2023/03/07 07:00:37;;;;;;;11.65;10.57;;;;;;;8.85;58.47;94126.53;5117713;28;20650;-73
2023/03/07 07:03:04;;;;;;;11.85;10.73;;;;;;;8.92;58.24;94121.19;5135700;28;20203;-73
2023/03/07 07:05:30;;;;;;;12.77;11.68;;;;;;;9.00;58.72;94122.09;5119482;27;20191;-73
2023/03/07 07:07:57;;;;;;;13.80;12.50;;;;;;;9.07;58.21;94126.94;5139239;27;20537;-73
2023/03/07 07:10:24;;;;;;;15.85;13.50;;;;;;;9.10;58.25;94129.75;5121280;27;20199;-73
2023/03/07 07:12:55;;;;;;;14.98;13.43;;;;;;;9.14;58.17;94119.59;5121636;27;20602;-73
2023/03/07 07:15:22;;;;;;;13.63;12.23;;;;;;;9.15;58.33;94132.22;5121306;27;20286;-73
2023/03/07 07:17:50;;;;;;;11.70;10.48;;;;;;;9.20;57.75;94116.56;5139388;27;20199;-73
2023/03/07 07:20:17;;;;;;;12.45;10.60;;;;;;;9.23;57.47;94122.13;5121615;27;20207;-74
2023/03/07 07:22:44;;;;;;;12.35;11.18;;;;;;;9.25;57.40;94124.50;5121033;27;20199;-73
2023/03/07 07:25:11;;;;;;;17.60;13.02;;;;;;;9.29;57.71;94119.84;5138849;27;20197;-73
2023/03/07 07:27:38;;;;;;;12.43;10.60;;;;;;;9.34;57.43;94125.06;5120767;27;20207;-73
2023/03/07 07:30:05;;;;;;;11.35;10.25;;;;;;;9.36;57.65;94126.25;5139254;27;20191;-73
2023/03/07 07:32:33;;;;;;;13.10;10.20;;;;;;;9.39;57.01;94133.78;5138879;27;20209;-73
2023/03/07 07:35:01;;;;;;;12.77;10.10;;;;;;;9.45;57.05;94134.28;5120893;27;20199;-73
2023/03/07 07:37:28;;;;;;;10.95;9.50;;;;;;;9.46;56.74;94129.56;5138986;27;20183;-73
2023/03/07 07:39:56;;;;;;;11.52;10.30;;;;;;;9.47;57.03;94133.91;5120897;27;20222;-74
2023/03/07 07:42:23;;;;;;;11.38;9.70;;;;;;;9.49;56.43;94131.59;5117342;28;20223;-74
2023/03/07 07:44:50;;;;;;;10.48;9.38;;;;;;;9.53;55.94;94135.97;5118209;28;20195;-74
2023/03/07 07:47:17;;;;;;;10.32;9.32;;;;;;;9.59;56.67;94145.53;5118321;28;20176;-74
2023/03/07 07:49:44;;;;;;;10.75;9.68;;;;;;;9.62;56.61;94130.19;5117235;28;20202;-74
2023/03/07 07:52:12;;;;;;;11.68;10.35;;;;;;;9.59;56.38;94126.25;5118109;28;20188;-74
2023/03/07 07:54:38;;;;;;;11.13;10.02;;;;;;;9.45;55.75;94130.75;5118288;28;20260;-74
2023/03/07 07:57:05;;;;;;;12.93;10.77;;;;;;;9.47;56.31;94129.19;5117215;28;20200;-74
2023/03/07 07:59:33;;;;;;;10.55;9.30;;;;;;;9.58;56.06;94135.66;5117888;28;20199;-74
2023/03/07 08:02:00;;;;;;;11.75;10.45;;;;;;;9.70;56.75;94131.13;5117969;28;20191;-74
2023/03/07 08:04:27;;;;;;;11.07;9.93;;;;;;;9.78;56.37;94141.88;5100328;28;20190;-73
2023/03/07 08:06:53;;;;;;;10.73;9.15;;;;;;;9.86;56.60;94146.31;5099968;28;20199;-74
2023/03/07 08:09:21;;;;;;;11.98;9.77;;;;;;;9.93;56.64;94142.88;5117792;28;20192;-74
2023/03/07 08:11:48;;;;;;;10.88;9.50;;;;;;;9.99;56.61;94141.41;5100284;28;20199;-73
2023/03/07 08:14:15;;;;;;;9.73;8.82;;;;;;;9.98;55.14;94139.00;5117464;28;20188;-73
2023/03/07 08:16:42;;;;;;;9.85;8.55;;;;;;;9.93;55.01;94136.59;5098858;28;20244;-73
2023/03/07 08:19:09;;;;;;;9.20;8.30;;;;;;;9.94;54.68;94144.47;5099451;28;20200;-73
2023/03/07 08:21:36;;;;;;;10.40;9.15;;;;;;;9.99;55.66;94140.63;5117972;28;20194;-73
2023/03/07 08:24:03;;;;;;;10.07;9.02;;;;;;;10.08;55.60;94133.66;5099139;28;20635;-73
2023/03/07 08:26:31;;;;;;;10.80;8.98;;;;;;;10.20;55.06;94137.34;5117513;28;20180;-73
2023/03/07 08:28:58;;;;;;;10.38;8.45;;;;;;;10.30;53.35;94145.00;5117285;28;20195;-73
2023/03/07 08:31:25;;;;;;;9.32;8.35;;;;;;;10.31;52.94;94141.06;5099157;28;20192;-73
2023/03/07 08:33:52;;;;;;;9.18;7.95;;;;;;;10.32;52.31;94137.16;5117321;28;20568;-73
2023/03/07 08:36:19;;;;;;;9.57;8.52;;;;;;;10.33;53.03;94138.75;5099489;28;20195;-73
2023/03/07 08:38:49;;;;;;;10.73;9.50;;;;;;;10.39;53.80;94142.78;5099241;28;20207;-73
2023/03/07 08:41:16;;;;;;;12.38;9.50;;;;;;;10.51;53.98;94142.53;5116743;28;20212;-74
2023/03/07 08:43:44;;;;;;;10.43;9.35;;;;;;;10.58;53.24;94136.31;5099200;28;20187;-74
2023/03/07 08:46:11;;;;;;;11.85;10.27;;;;;;;10.66;54.09;94128.91;5099028;28;20268;-73
2023/03/07 08:48:38;;;;;;;10.07;8.80;;;;;;;10.85;52.67;94131.47;5098966;28;20214;-74
2023/03/07 08:51:06;;;;;;;10.73;8.32;;;;;;;11.17;52.51;94125.50;5116874;28;20180;-73
2023/03/07 08:53:33;;;;;;;8.00;7.20;;;;;;;11.38;50.33;94128.47;5116973;28;20179;-73
2023/03/07 08:56:00;;;;;;;8.00;7.20;;;;;;;11.59;50.13;94125.09;5116709;28;20184;-73
2023/03/07 08:58:26;;;;;;;7.47;6.63;;;;;;;11.70;49.12;94114.16;5098913;28;20647;-73
2023/03/07 09:00:55;;;;;;;8.00;7.20;;;;;;;11.77;49.29;94117.75;5098737;28;20219;-73
2023/03/07 09:03:22;;;;;;;9.95;8.32;;;;;;;11.84;49.38;94117.03;5116644;28;20191;-73
2023/03/07 09:05:48;;;;;;;8.63;7.72;;;;;;;12.08;49.93;94112.84;5098927;28;20216;-73
2023/03/07 09:08:15;;;;;;;7.78;6.97;;;;;;;12.39;48.73;94119.75;5098492;28;20195;-73
2023/03/07 09:10:42;;;;;;;7.80;6.90;;;;;;;12.66;48.48;94116.69;5098438;28;20194;-73
2023/03/07 09:13:09;;;;;;;8.43;7.03;;;;;;;12.83;45.96;94120.72;5098545;28;20196;-73
2023/03/07 09:15:38;;;;;;;8.80;7.28;;;;;;;12.99;46.15;94112.84;5098324;28;20196;-72
2023/03/07 09:18:07;;;;;;;7.70;6.90;;;;;;;13.15;46.59;94112.50;5098332;28;20180;-73
2023/03/07 09:20:33;;;;;;;9.40;8.50;;;;;;;13.19;47.03;94113.31;5098441;28;20696;-73
2023/03/07 09:23:00;;;;;;;10.40;8.50;;;;;;;13.26;47.52;94116.13;5116263;28;20193;-72
2023/03/07 09:25:27;;;;;;;8.55;7.55;;;;;;;13.44;46.74;94121.69;5098679;28;20198;-73
2023/03/07 09:27:54;;;;;;;7.75;6.85;;;;;;;13.44;44.13;94105.84;5098283;28;20199;-72
2023/03/07 09:30:22;;;;;;;10.30;8.02;;;;;;;13.56;46.60;94101.09;5097954;28;20203;-73
2023/03/07 09:32:48;;;;;;;8.85;7.15;;;;;;;13.47;46.06;94098.69;5098329;28;20256;-73
2023/03/07 09:35:17;;;;;;;8.50;7.63;;;;;;;13.20;45.59;94098.25;5098328;28;20195;-72
2023/03/07 09:37:44;;;;;;;8.90;7.13;;;;;;;13.05;46.19;94102.19;5116076;28;20203;-73
2023/03/07 09:40:16;;;;;;;6.88;6.18;;;;;;;13.05;46.58;94102.19;5116013;28;20605;-73
2023/03/07 09:42:49;;;;;;;7.05;6.35;;;;;;;13.04;45.58;94095.09;5097822;28;20231;-73
2023/03/07 09:45:31;;;;;;;4.85;4.10;;;;;;;12.96;43.54;94088.72;5116047;28;20204;-73
2023/03/07 09:48:09;;;;;;;3.40;3.10;;;;;;;13.06;42.83;94079.66;5115838;28;20191;-73
2023/03/07 09:50:41;;;;;;;3.00;2.80;;;;;;;13.45;43.33;94076.16;5098231;28;20192;-73
2023/03/07 09:53:16;;;;;;;4.10;3.15;;;;;;;13.85;42.20;94090.78;5115866;28;20219;-73
2023/03/07 09:55:42;;;;;;;2.60;2.40;;;;;;;14.07;40.72;94072.16;5098291;28;20221;-74
2023/03/07 09:58:15;;;;;;;3.03;2.72;;;;;;;14.39;40.52;94081.19;5115826;28;20184;-74
2023/03/07 10:00:44;;;;;;;2.88;2.60;;;;;;;14.57;39.30;94069.25;5098391;28;20208;-74
2023/03/07 10:03:19;;;;;;;4.00;3.10;;;;;;;14.77;40.51;94069.56;5098471;28;20183;-73
2023/03/07 10:05:49;;;;;;;2.50;2.30;;;;;;;14.82;38.32;94064.38;5098496;28;20203;-73
2023/03/07 10:08:19;;;;;;;2.88;2.50;;;;;;;14.86;38.46;94056.81;5098272;28;20202;-73
2023/03/07 10:10:51;;;;;;;2.53;2.33;;;;;;;15.03;38.15;94057.13;5098068;28;20191;-73
2023/03/07 10:13:37;;;;;;;3.17;2.85;;;;;;;15.08;36.75;94060.28;5098227;28;20212;-73
2023/03/07 10:16:11;;;;;;;3.10;2.90;;;;;;;15.00;37.30;94041.28;5115845;28;20180;-73
2023/03/07 10:18:46;;;;;;;2.50;2.30;;;;;;;14.90;37.97;94048.47;5097839;28;20188;-73
2023/03/07 10:21:23;;;;;;;4.05;2.65;;;;;;;15.10;37.63;94043.97;5097817;28;20666;-73
2023/03/07 10:24:16;;;;;;;2.40;2.20;;;;;;;15.26;35.37;94042.69;5116597;28;20197;-73
2023/03/07 10:26:49;;;;;;;3.15;2.60;;;;;;;15.19;35.67;94056.63;5095769;28;20200;-73
2023/03/07 10:29:18;;;;;;;2.75;2.40;;;;;;;15.00;35.71;94044.06;5098100;28;20223;-73
2023/03/07 10:31:48;;;;;;;3.47;2.53;;;;;;;14.75;36.73;94036.66;5098934;28;20191;-73
2023/03/07 10:34:17;;;;;;;3.90;2.60;;;;;;;14.58;36.69;94027.22;5117620;28;20172;-73
2023/03/07 10:36:46;;;;;;;2.38;2.15;;;;;;;14.58;36.00;94032.00;5082532;28;20200;-73
2023/03/07 10:39:23;;;;;;;2.90;2.70;;;;;;;14.61;36.16;94036.72;5099333;28;20199;-73
2023/03/07 10:41:50;;;;;;;2.63;2.42;;;;;;;14.65;36.93;94024.41;5120179;28;20310;-73
2023/03/07 10:44:19;;;;;;;3.75;2.95;;;;;;;14.96;38.11;94012.72;5120987;28;20195;-73
2023/03/07 10:46:46;;;;;;;3.03;2.83;;;;;;;15.10;35.67;94005.09;5121094;28;20195;-73
2023/03/07 10:49:15;;;;;;;2.58;2.38;;;;;;;15.29;35.69;94014.09;5121090;28;20180;-73
2023/03/07 10:51:53;;;;;;;2.92;2.35;;;;;;;15.44;35.17;94009.22;5120718;28;20196;-73
2023/03/07 10:54:22;;;;;;;3.45;3.15;;;;;;;15.57;34.57;94007.50;5121039;28;20186;-73
2023/03/07 10:57:07;;;;;;;4.28;3.35;;;;;;;15.58;36.05;93992.44;5103092;28;20245;-74
2023/03/07 10:59:35;;;;;;;2.67;2.47;;;;;;;15.80;34.46;93993.84;5120581;28;20184;-73
2023/03/07 11:02:04;;;;;;;2.55;2.35;;;;;;;15.81;35.80;93978.72;5120524;28;20631;-73
2023/03/07 11:04:43;;;;;;;2.65;2.45;;;;;;;16.17;36.46;93975.56;5120761;28;20275;-73
2023/03/07 11:07:26;;;;;;;3.25;2.47;;;;;;;16.70;34.57;93967.72;5120361;28;20220;-73
2023/03/07 11:09:53;;;;;;;2.30;2.15;;;;;;;16.88;33.28;93967.50;5102482;28;20256;-73
2023/03/07 11:12:21;;;;;;;4.43;2.38;;;;;;;17.04;33.55;93962.09;5101147;28;20180;-73
2023/03/07 11:14:49;;;;;;;2.53;2.30;;;;;;;17.30;31.22;93957.69;5100954;28;20192;-73
2023/03/07 11:17:19;;;;;;;2.15;2.00;;;;;;;17.15;32.52;93959.94;5100838;28;20272;-73
2023/03/07 11:19:47;;;;;;;2.65;2.40;;;;;;;17.00;31.73;93962.16;5101155;28;20196;-73
2023/03/07 11:22:22;;;;;;;2.58;2.17;;;;;;;16.48;31.13;93968.00;5100845;28;20212;-73
2023/03/07 11:24:53;;;;;;;4.88;2.30;;;;;;;15.95;32.10;93963.88;5118707;28;20191;-73
2023/03/07 11:27:23;;;;;;;2.65;2.45;;;;;;;15.65;33.13;93953.47;5100320;28;20188;-73
2023/03/07 11:30:06;;;;;;;2.63;2.35;;;;;;;15.80;33.90;93941.00;5118602;28;20184;-72
2023/03/07 11:32:35;;;;;;;4.50;2.97;;;;;;;16.27;34.80;93946.03;5100474;28;20209;-73
2023/03/07 11:35:07;;;;;;;2.75;2.55;;;;;;;16.64;32.78;93947.94;5118753;28;20195;-70
2023/03/07 11:37:38;;;;;;;2.60;2.17;;;;;;;16.86;32.23;93958.78;5101634;28;20203;-70
2023/03/07 11:40:23;;;;;;;3.05;2.40;;;;;;;17.12;32.08;93949.63;5101740;28;20188;-70